Time;durP1;ratioP1;P1;durP2;ratioP2;P2;SDS_P1;SDS_P2;PMS_P1;PMS_P2;Temp;Humidity;BMP_temperature;BMP_pressure;BME280_temperature;BME280_humidity;BME280_pressure;Samples;Min_cycle;Max_cycle;Signal;HPM_P1;HPM_P2
2021/08/29 00:00:38;;;;;;;2.83;1.60;;;16.40;77.70;;;;;;5028656;28;20087;-78
2021/08/29 00:03:04;;;;;;;3.03;1.67;;;16.40;77.70;;;;;;5031480;28;20061;-79
2021/08/29 00:05:29;;;;;;;2.17;1.45;;;16.40;77.80;;;;;;5022621;28;20120;-79
2021/08/29 00:07:55;;;;;;;2.42;1.52;;;16.40;77.70;;;;;;5030889;28;20176;-79
2021/08/29 00:10:21;;;;;;;2.97;1.42;;;16.40;78.40;;;;;;5031345;28;20037;-78
2021/08/29 00:12:47;;;;;;;3.70;1.48;;;16.40;77.80;;;;;;5031351;28;20021;-79
2021/08/29 00:15:13;;;;;;;2.83;1.38;;;16.40;77.90;;;;;;5031753;28;20032;-79
2021/08/29 00:17:38;;;;;;;2.72;1.63;;;16.40;77.90;;;;;;5030648;28;20021;-79
2021/08/29 00:20:05;;;;;;;2.85;1.40;;;16.40;77.90;;;;;;5031246;28;20421;-79
2021/08/29 00:22:30;;;;;;;3.90;1.70;;;16.40;77.90;;;;;;5031644;28;20035;-78
2021/08/29 00:24:56;;;;;;;3.17;1.80;;;16.40;78.00;;;;;;5031260;28;20042;-79
2021/08/29 00:27:22;;;;;;;3.75;1.50;;;16.40;78.20;;;;;;5030879;28;20067;-79
2021/08/29 00:29:47;;;;;;;2.03;1.50;;;16.40;78.20;;;;;;5031029;28;20091;-78
2021/08/29 00:32:13;;;;;;;3.65;1.58;;;16.40;78.30;;;;;;5031267;28;20030;-78
2021/08/29 00:34:39;;;;;;;4.13;1.65;;;16.40;78.90;;;;;;5029470;28;20079;-78
2021/08/29 00:37:05;;;;;;;4.10;1.63;;;16.40;78.50;;;;;;5029661;28;20053;-78
2021/08/29 00:39:31;;;;;;;2.42;1.30;;;16.40;78.60;;;;;;5031273;28;20565;-78
2021/08/29 00:41:56;;;;;;;1.80;1.27;;;16.40;78.60;;;;;;5031174;28;20083;-79
2021/08/29 00:44:22;;;;;;;3.08;1.50;;;16.40;78.50;;;;;;5031045;28;20041;-78
2021/08/29 00:46:47;;;;;;;4.18;1.88;;;16.50;78.50;;;;;;5029942;28;20018;-78
2021/08/29 00:49:14;;;;;;;3.72;1.90;;;16.40;78.50;;;;;;5030967;28;20505;-77
2021/08/29 00:51:40;;;;;;;4.57;1.60;;;16.40;78.70;;;;;;5029536;28;20021;-78
2021/08/29 00:54:05;;;;;;;3.83;1.58;;;16.40;78.70;;;;;;5030811;28;20384;-78
2021/08/29 00:56:31;;;;;;;4.97;2.20;;;16.40;78.80;;;;;;5030134;28;20112;-78
2021/08/29 00:58:57;;;;;;;2.55;1.50;;;16.40;78.90;;;;;;5029154;28;20041;-76
2021/08/29 01:01:31;;;;;;;2.63;1.50;;;16.40;78.90;;;;;;5029907;28;20013;-76
2021/08/29 01:04:02;;;;;;;4.90;1.60;;;16.50;78.90;;;;;;5030824;28;20086;-77
2021/08/29 01:06:44;;;;;;;3.20;1.67;;;16.50;78.90;;;;;;5030496;28;20491;-77
2021/08/29 01:09:12;;;;;;;2.90;1.60;;;16.50;78.90;;;;;;5030646;28;20017;-78
2021/08/29 01:11:43;;;;;;;4.30;1.80;;;16.50;79.00;;;;;;5030703;28;20028;-78
2021/08/29 01:14:12;;;;;;;3.58;1.70;;;16.50;79.00;;;;;;5030611;28;20021;-78
2021/08/29 01:16:39;;;;;;;3.28;1.65;;;16.60;79.00;;;;;;5029192;28;20036;-77
2021/08/29 01:19:16;;;;;;;3.05;1.58;;;16.50;78.90;;;;;;5030087;28;20420;-77
2021/08/29 01:21:45;;;;;;;4.78;1.90;;;16.50;79.00;;;;;;5028481;28;20120;-77
2021/08/29 01:24:20;;;;;;;3.15;1.70;;;16.50;78.90;;;;;;5030670;28;20095;-77
2021/08/29 01:26:53;;;;;;;4.50;1.70;;;16.60;79.00;;;;;;5029697;28;20026;-77
2021/08/29 01:29:26;;;;;;;3.45;1.48;;;16.60;79.00;;;;;;5025317;28;20468;-77
2021/08/29 01:31:52;;;;;;;3.00;1.30;;;16.60;78.90;;;;;;5030541;28;20022;-77
2021/08/29 01:34:18;;;;;;;5.05;1.98;;;16.60;78.90;;;;;;5029911;28;20028;-77
2021/08/29 01:36:47;;;;;;;4.35;1.75;;;16.60;78.90;;;;;;5028801;28;20480;-77
2021/08/29 01:39:13;;;;;;;3.30;1.50;;;16.60;79.10;;;;;;5028175;28;20496;-77
2021/08/29 01:41:41;;;;;;;3.83;1.70;;;16.60;79.10;;;;;;5029298;28;20112;-77
2021/08/29 01:44:08;;;;;;;3.80;1.83;;;16.60;79.10;;;;;;5030564;28;20038;-77
2021/08/29 01:46:35;;;;;;;4.03;1.80;;;16.60;79.20;;;;;;5029212;28;20064;-77
2021/08/29 01:49:07;;;;;;;4.38;1.85;;;16.60;79.20;;;;;;5031401;28;20021;-78
2021/08/29 01:51:33;;;;;;;4.60;1.77;;;16.60;79.20;;;;;;5033920;28;20087;-76
2021/08/29 01:54:00;;;;;;;4.03;2.08;;;16.60;79.30;;;;;;5033316;28;20091;-77
2021/08/29 01:56:25;;;;;;;5.63;2.20;;;16.60;79.40;;;;;;5033490;28;20079;-78
2021/08/29 01:58:51;;;;;;;4.80;1.95;;;16.60;79.40;;;;;;5033974;28;20133;-77
2021/08/29 02:01:16;;;;;;;3.78;1.92;;;16.60;79.40;;;;;;5034295;28;20467;-77
2021/08/29 02:03:44;;;;;;;4.10;2.03;;;16.60;79.40;;;;;;5031900;28;20033;-77
2021/08/29 02:06:34;;;;;;;2.65;1.90;;;16.60;79.30;;;;;;5032893;28;20044;-78
2021/08/29 02:09:03;;;;;;;4.00;2.10;;;16.60;79.40;;;;;;5033097;28;20033;-77
2021/08/29 02:11:33;;;;;;;4.72;1.95;;;16.60;79.40;;;;;;5033423;28;20028;-78
2021/08/29 02:14:02;;;;;;;3.88;2.03;;;16.70;80.00;;;;;;5031110;28;20084;-78
2021/08/29 02:16:33;;;;;;;4.05;2.40;;;16.60;79.40;;;;;;5032681;28;20052;-77
2021/08/29 02:18:59;;;;;;;4.03;1.95;;;16.60;79.40;;;;;;5033454;28;20045;-77
2021/08/29 02:21:29;;;;;;;4.07;1.77;;;16.60;79.40;;;;;;5033282;28;20382;-78
2021/08/29 02:23:56;;;;;;;6.10;2.28;;;16.60;79.50;;;;;;5033585;28;20389;-78
2021/08/29 02:26:24;;;;;;;3.85;1.83;;;16.60;79.50;;;;;;5032837;28;20025;-78
2021/08/29 02:28:51;;;;;;;4.55;2.20;;;16.60;79.40;;;;;;5033420;28;20033;-78
2021/08/29 02:31:20;;;;;;;5.13;2.30;;;16.60;79.50;;;;;;5033390;28;20033;-78
2021/08/29 02:33:47;;;;;;;7.38;2.50;;;16.60;79.60;;;;;;5022903;28;20029;-77
2021/08/29 02:36:14;;;;;;;3.47;2.15;;;16.60;79.60;;;;;;5033332;28;20079;-77
2021/08/29 02:38:42;;;;;;;4.65;2.00;;;16.60;79.60;;;;;;5031446;28;20373;-77
2021/08/29 02:41:08;;;;;;;5.57;2.47;;;16.60;79.50;;;;;;5033225;28;20056;-77
2021/08/29 02:43:35;;;;;;;5.15;2.42;;;16.60;79.40;;;;;;5030312;28;20397;-78
2021/08/29 02:46:02;;;;;;;6.45;2.85;;;16.70;79.50;;;;;;5032422;28;20469;-77
2021/08/29 02:48:30;;;;;;;6.10;2.85;;;16.60;79.30;;;;;;5032970;28;20025;-77
2021/08/29 02:50:57;;;;;;;4.82;2.97;;;16.60;79.40;;;;;;5026199;28;20499;-78
2021/08/29 02:53:23;;;;;;;6.25;3.13;;;16.60;79.40;;;;;;5032873;28;20550;-78
2021/08/29 02:55:53;;;;;;;7.03;3.50;;;16.60;79.20;;;;;;5031703;28;20033;-78
2021/08/29 02:58:19;;;;;;;8.68;4.82;;;16.70;79.20;;;;;;5031976;28;20034;-78
2021/08/29 03:00:45;;;;;;;8.85;4.93;;;16.60;79.10;;;;;;5031173;28;20041;-78
2021/08/29 03:03:12;;;;;;;7.75;4.68;;;16.70;79.10;;;;;;5032901;28;20041;-78
2021/08/29 03:05:38;;;;;;;10.35;5.85;;;16.70;79.10;;;;;;5032768;28;20087;-78
2021/08/29 03:08:04;;;;;;;12.32;6.97;;;16.70;78.90;;;;;;5031932;28;20029;-77
2021/08/29 03:10:30;;;;;;;11.90;7.07;;;16.70;78.90;;;;;;5032544;28;20433;-77
2021/08/29 03:12:57;;;;;;;10.70;6.60;;;16.70;78.90;;;;;;5032293;28;20021;-78
2021/08/29 03:15:23;;;;;;;10.10;6.35;;;16.70;78.80;;;;;;5032755;28;20032;-77
2021/08/29 03:17:49;;;;;;;12.52;7.22;;;16.70;78.80;;;;;;5031595;28;20040;-77
2021/08/29 03:20:15;;;;;;;9.60;6.35;;;16.80;78.70;;;;;;5031350;28;20025;-78
2021/08/29 03:22:42;;;;;;;11.88;7.55;;;16.80;78.60;;;;;;5031316;28;20025;-77
2021/08/29 03:25:08;;;;;;;12.38;7.00;;;16.80;78.70;;;;;;5032333;28;20424;-78
2021/08/29 03:27:35;;;;;;;13.93;7.53;;;16.80;78.70;;;;;;5031200;28;20021;-78
2021/08/29 03:30:00;;;;;;;11.90;7.10;;;16.70;78.80;;;;;;5032067;28;20037;-77
2021/08/29 03:32:26;;;;;;;10.15;6.40;;;16.70;78.90;;;;;;5032233;28;20639;-76
2021/08/29 03:34:58;;;;;;;14.35;7.28;;;16.70;78.90;;;;;;5022417;28;20065;-76
2021/08/29 03:37:25;;;;;;;12.90;7.47;;;16.70;79.10;;;;;;5030220;28;20024;-77
2021/08/29 03:39:52;;;;;;;9.20;6.10;;;16.60;79.10;;;;;;5032129;28;20057;-77
2021/08/29 03:42:20;;;;;;;11.13;6.88;;;16.60;79.30;;;;;;5032093;28;20400;-77
2021/08/29 03:44:46;;;;;;;10.60;6.75;;;16.60;79.40;;;;;;5032000;28;20423;-77
2021/08/29 03:47:12;;;;;;;8.25;5.15;;;16.60;79.50;;;;;;5031043;28;20021;-78
2021/08/29 03:49:38;;;;;;;8.45;5.47;;;16.60;79.60;;;;;;5032247;28;20091;-77
2021/08/29 03:52:04;;;;;;;8.25;4.40;;;16.50;79.70;;;;;;5026097;28;20455;-79
2021/08/29 03:54:30;;;;;;;8.88;4.63;;;16.60;79.70;;;;;;5031437;28;20029;-77
2021/08/29 03:56:56;;;;;;;5.90;3.60;;;16.60;79.70;;;;;;5031142;28;20036;-77
2021/08/29 03:59:22;;;;;;;4.68;3.38;;;16.50;79.70;;;;;;5031307;28;20469;-77
2021/08/29 04:01:48;;;;;;;5.97;2.90;;;16.50;79.70;;;;;;5032251;28;20041;-77
2021/08/29 04:04:14;;;;;;;7.00;3.30;;;16.50;79.80;;;;;;5031577;28;20041;-77
2021/08/29 04:06:39;;;;;;;6.20;3.03;;;16.50;79.80;;;;;;5031210;28;20498;-78
2021/08/29 04:09:07;;;;;;;3.22;2.17;;;16.50;79.90;;;;;;5031849;28;20025;-77
2021/08/29 04:11:34;;;;;;;4.97;2.60;;;16.50;79.80;;;;;;5031286;28;20459;-77
2021/08/29 04:14:00;;;;;;;4.00;2.38;;;16.50;79.90;;;;;;5031676;28;20033;-77
2021/08/29 04:16:27;;;;;;;5.72;2.00;;;16.50;80.00;;;;;;5030404;28;20056;-77
2021/08/29 04:18:53;;;;;;;4.90;2.25;;;16.50;80.00;;;;;;5031287;28;20053;-77
2021/08/29 04:21:23;;;;;;;3.58;2.30;;;16.50;80.00;;;;;;5031488;28;20053;-77
2021/08/29 04:23:49;;;;;;;4.38;1.92;;;16.60;80.10;;;;;;5031386;28;20091;-77
2021/08/29 04:26:14;;;;;;;2.97;2.08;;;16.60;80.10;;;;;;5030575;28;20033;-77
2021/08/29 04:28:40;;;;;;;4.57;2.20;;;16.50;80.10;;;;;;5030904;28;20155;-77
2021/08/29 04:31:31;;;;;;;3.60;2.20;;;16.50;80.10;;;;;;5031080;28;20072;-77
2021/08/29 04:33:57;;;;;;;4.70;2.00;;;16.50;80.30;;;;;;5027471;28;20041;-76
2021/08/29 04:36:22;;;;;;;4.50;2.05;;;16.50;80.30;;;;;;5030943;28;20025;-77
2021/08/29 04:38:48;;;;;;;4.53;2.00;;;16.60;80.40;;;;;;5031311;28;20036;-77
2021/08/29 04:41:13;;;;;;;4.85;1.63;;;16.60;80.40;;;;;;5031148;28;20065;-76
2021/08/29 04:43:39;;;;;;;5.88;2.08;;;16.60;80.40;;;;;;5031072;28;20057;-77
2021/08/29 04:46:05;;;;;;;4.40;2.17;;;16.60;80.50;;;;;;5030304;28;20456;-77
2021/08/29 04:48:31;;;;;;;4.40;2.00;;;16.60;80.60;;;;;;5030868;28;20491;-77
2021/08/29 04:50:57;;;;;;;5.57;2.13;;;16.60;80.70;;;;;;5030071;28;20029;-77
2021/08/29 04:53:23;;;;;;;6.28;2.10;;;16.60;80.90;;;;;;5031250;28;20029;-76
2021/08/29 04:55:48;;;;;;;3.45;1.77;;;16.60;80.80;;;;;;5030498;28;20029;-77
2021/08/29 04:58:14;;;;;;;3.55;1.60;;;16.60;80.80;;;;;;5030531;28;20022;-77
2021/08/29 05:00:39;;;;;;;3.75;1.63;;;16.60;80.80;;;;;;5026314;28;20041;-77
2021/08/29 05:03:05;;;;;;;4.90;2.30;;;16.60;81.50;;;;;;5029203;28;20114;-77
2021/08/29 05:05:30;;;;;;;5.03;2.00;;;16.60;80.80;;;;;;5030189;28;20066;-77
2021/08/29 05:07:56;;;;;;;3.85;1.83;;;16.70;80.90;;;;;;5030350;28;20060;-77
2021/08/29 05:10:22;;;;;;;3.08;1.58;;;16.70;80.80;;;;;;5038862;28;20026;-77
2021/08/29 05:12:48;;;;;;;4.32;1.92;;;16.70;80.70;;;;;;5031332;28;20021;-77
2021/08/29 05:15:14;;;;;;;4.30;1.70;;;16.70;80.80;;;;;;5034023;28;20018;-75
2021/08/29 05:17:39;;;;;;;6.55;2.25;;;16.80;80.70;;;;;;5031320;28;20030;-77
2021/08/29 05:20:05;;;;;;;4.82;1.85;;;16.80;80.80;;;;;;5030326;28;20029;-77
2021/08/29 05:22:31;;;;;;;5.22;1.60;;;16.80;80.80;;;;;;5030994;28;20029;-77
2021/08/29 05:24:56;;;;;;;3.28;1.83;;;16.80;80.80;;;;;;5034298;28;20116;-77
2021/08/29 05:27:22;;;;;;;5.78;2.08;;;16.80;80.80;;;;;;5034532;28;20017;-78
2021/08/29 05:29:48;;;;;;;7.35;2.17;;;16.90;80.80;;;;;;5035269;28;20036;-77
2021/08/29 05:32:13;;;;;;;3.83;1.83;;;16.90;80.90;;;;;;5034225;28;20036;-78
2021/08/29 05:34:39;;;;;;;3.90;1.60;;;16.90;80.80;;;;;;5034295;28;20065;-77
2021/08/29 05:37:04;;;;;;;3.70;1.90;;;16.90;80.70;;;;;;5033555;28;20072;-77
2021/08/29 05:39:30;;;;;;;4.22;1.90;;;16.90;80.70;;;;;;5033673;28;20025;-77
2021/08/29 05:41:55;;;;;;;6.10;2.30;;;16.90;80.80;;;;;;5034546;28;20100;-77
2021/08/29 05:44:21;;;;;;;5.18;1.73;;;16.90;80.70;;;;;;5034048;28;20041;-78
2021/08/29 05:46:46;;;;;;;5.90;1.92;;;16.90;80.80;;;;;;5033295;28;20476;-78
2021/08/29 05:49:12;;;;;;;4.65;1.92;;;16.90;80.80;;;;;;5033588;28;20083;-77
2021/08/29 05:51:37;;;;;;;6.07;2.00;;;17.00;80.80;;;;;;5033739;28;20017;-78
2021/08/29 05:54:03;;;;;;;5.75;1.92;;;17.00;80.80;;;;;;5033987;28;20032;-77
2021/08/29 05:56:29;;;;;;;4.78;2.17;;;17.00;80.80;;;;;;5033502;28;20616;-77
2021/08/29 05:58:54;;;;;;;6.07;2.28;;;17.00;80.90;;;;;;5034408;28;20026;-78
2021/08/29 06:01:20;;;;;;;7.32;2.30;;;17.00;81.00;;;;;;5033220;28;20022;-77
2021/08/29 06:03:51;;;;;;;5.10;1.80;;;17.00;81.00;;;;;;5034186;28;20065;-78
2021/08/29 06:06:17;;;;;;;3.77;2.03;;;17.00;80.90;;;;;;5033645;28;20071;-77
2021/08/29 06:08:42;;;;;;;4.97;1.65;;;17.00;80.90;;;;;;5034073;28;20268;-77
2021/08/29 06:11:08;;;;;;;7.90;2.20;;;17.10;80.80;;;;;;5032595;28;20052;-77
2021/08/29 06:13:35;;;;;;;4.00;1.98;;;17.10;80.80;;;;;;5032660;28;20017;-80
2021/08/29 06:16:01;;;;;;;6.18;1.95;;;17.00;80.70;;;;;;5031145;28;20029;-79
2021/08/29 06:18:27;;;;;;;5.68;1.80;;;17.10;80.70;;;;;;5031322;28;20029;-78
2021/08/29 06:20:52;;;;;;;5.80;2.00;;;17.10;80.60;;;;;;5034558;28;20083;-79
2021/08/29 06:23:18;;;;;;;3.05;1.45;;;17.10;80.60;;;;;;5033690;28;20041;-79
2021/08/29 06:25:43;;;;;;;6.20;1.83;;;17.20;80.60;;;;;;5032849;28;20037;-79
2021/08/29 06:28:09;;;;;;;4.90;2.10;;;17.10;80.50;;;;;;5031637;28;20026;-79
2021/08/29 06:30:34;;;;;;;4.53;1.80;;;17.10;80.50;;;;;;5031101;28;20436;-78
2021/08/29 06:33:00;;;;;;;3.97;1.83;;;17.10;80.50;;;;;;5032299;28;20030;-78
2021/08/29 06:35:25;;;;;;;5.00;1.77;;;17.20;80.50;;;;;;5031290;28;20043;-77
2021/08/29 06:37:51;;;;;;;4.15;1.65;;;17.20;80.40;;;;;;5030882;28;20105;-79
2021/08/29 06:40:17;;;;;;;7.38;2.65;;;17.30;80.30;;;;;;5028986;28;20033;-79
2021/08/29 06:42:43;;;;;;;4.72;1.90;;;17.30;80.30;;;;;;5032032;28;20067;-77
2021/08/29 06:45:10;;;;;;;5.65;1.90;;;17.30;80.30;;;;;;5026777;28;20033;-78
2021/08/29 06:47:35;;;;;;;5.82;2.05;;;17.30;80.20;;;;;;5028728;28;20025;-78
2021/08/29 06:50:02;;;;;;;5.88;1.92;;;17.30;80.20;;;;;;5026712;28;20014;-78
2021/08/29 06:52:27;;;;;;;5.22;1.70;;;17.40;80.20;;;;;;5029547;28;20032;-78
2021/08/29 06:54:53;;;;;;;4.53;1.75;;;17.40;80.10;;;;;;5032455;28;20025;-78
2021/08/29 06:57:18;;;;;;;7.40;2.08;;;17.40;80.10;;;;;;5032507;28;20041;-76
2021/08/29 06:59:44;;;;;;;5.72;2.10;;;17.50;80.10;;;;;;5032662;28;20431;-77
2021/08/29 07:02:09;;;;;;;5.50;1.80;;;17.50;80.00;;;;;;5030368;28;20022;-77
2021/08/29 07:04:35;;;;;;;4.60;2.03;;;17.50;79.90;;;;;;5031061;28;20095;-85
2021/08/29 07:07:00;;;;;;;4.72;1.90;;;17.50;79.90;;;;;;5027713;28;20128;-82
2021/08/29 07:09:26;;;;;;;5.18;1.73;;;17.50;79.90;;;;;;5030965;28;20437;-77
2021/08/29 07:11:52;;;;;;;3.72;1.52;;;17.50;79.90;;;;;;5034339;28;20031;-78
2021/08/29 07:14:17;;;;;;;5.00;1.40;;;17.50;79.80;;;;;;5038614;28;20029;-77
2021/08/29 07:16:43;;;;;;;6.07;1.90;;;17.60;79.70;;;;;;5034505;28;20025;-77
2021/08/29 07:19:08;;;;;;;6.13;2.00;;;17.60;79.70;;;;;;5032013;28;20121;-75
2021/08/29 07:21:34;;;;;;;7.85;2.20;;;17.50;79.80;;;;;;5030450;28;20046;-76
2021/08/29 07:24:00;;;;;;;5.43;1.80;;;17.50;79.90;;;;;;5030390;28;20914;-76
2021/08/29 07:26:25;;;;;;;4.07;1.70;;;17.50;79.90;;;;;;5027920;28;20022;-75
2021/08/29 07:28:51;;;;;;;3.95;1.80;;;17.50;79.80;;;;;;5030670;28;20033;-75
2021/08/29 07:31:17;;;;;;;4.63;1.90;;;17.50;79.80;;;;;;5026484;28;20048;-76
2021/08/29 07:33:42;;;;;;;4.40;1.75;;;17.50;79.90;;;;;;5030484;28;20049;-75
2021/08/29 07:36:08;;;;;;;5.20;1.77;;;17.50;79.80;;;;;;5031628;28;20091;-77
2021/08/29 07:38:34;;;;;;;5.05;1.85;;;17.50;79.80;;;;;;5038529;28;20029;-77
2021/08/29 07:41:00;;;;;;;3.50;1.60;;;17.60;79.90;;;;;;5032245;28;20108;-77
2021/08/29 07:43:26;;;;;;;5.13;1.80;;;17.60;79.90;;;;;;5028885;28;20036;-77
2021/08/29 07:45:51;;;;;;;4.65;1.80;;;17.60;80.00;;;;;;5031960;28;20021;-77
2021/08/29 07:48:17;;;;;;;7.20;2.00;;;17.60;79.90;;;;;;5029935;28;20014;-76
2021/08/29 07:50:42;;;;;;;5.28;1.77;;;17.50;79.90;;;;;;5031565;28;20056;-77
2021/08/29 07:53:08;;;;;;;4.90;1.60;;;17.50;80.10;;;;;;5032003;28;20468;-78
2021/08/29 07:55:33;;;;;;;4.10;1.60;;;17.50;80.20;;;;;;5031419;28;20029;-77
2021/08/29 07:58:00;;;;;;;4.68;1.95;;;17.50;80.30;;;;;;5032417;28;20559;-76
2021/08/29 08:00:26;;;;;;;7.70;2.10;;;17.40;80.40;;;;;;5029742;28;20024;-76
2021/08/29 08:02:51;;;;;;;5.53;1.70;;;17.40;80.80;;;;;;5030963;28;20029;-78
2021/08/29 08:05:17;;;;;;;4.82;1.63;;;17.40;80.90;;;;;;5031520;28;20087;-78
2021/08/29 08:07:42;;;;;;;2.75;1.27;;;17.30;81.00;;;;;;5032107;28;20044;-77
2021/08/29 08:10:08;;;;;;;3.45;1.55;;;17.30;81.20;;;;;;5031905;28;20029;-77
2021/08/29 08:12:34;;;;;;;6.88;1.80;;;17.40;81.20;;;;;;5029572;28;20041;-77
2021/08/29 08:14:59;;;;;;;6.40;2.17;;;17.30;81.50;;;;;;5030472;28;20030;-78
2021/08/29 08:17:25;;;;;;;5.85;2.08;;;17.30;81.60;;;;;;5031352;28;20044;-78
2021/08/29 08:19:51;;;;;;;5.32;1.80;;;17.30;81.70;;;;;;5032534;28;20029;-79
2021/08/29 08:22:17;;;;;;;5.82;2.03;;;17.30;81.80;;;;;;5028593;28;20052;-78
2021/08/29 08:24:42;;;;;;;6.75;2.30;;;17.20;82.00;;;;;;5030993;28;20040;-78
2021/08/29 08:27:08;;;;;;;5.32;2.20;;;17.20;82.30;;;;;;5031042;28;20037;-78
2021/08/29 08:29:34;;;;;;;4.40;1.90;;;17.10;82.50;;;;;;5030561;28;20025;-78
2021/08/29 08:31:59;;;;;;;5.55;1.73;;;17.00;82.50;;;;;;5027734;28;20495;-75
2021/08/29 08:34:25;;;;;;;4.03;1.80;;;17.00;82.60;;;;;;5033325;28;20026;-79
2021/08/29 08:36:51;;;;;;;3.75;1.60;;;16.90;82.70;;;;;;5030335;28;20049;-79
2021/08/29 08:39:16;;;;;;;2.75;1.40;;;16.90;82.70;;;;;;5029056;28;20033;-79
2021/08/29 08:41:42;;;;;;;3.85;1.65;;;16.90;82.70;;;;;;5026631;28;20018;-78
2021/08/29 08:44:07;;;;;;;3.55;1.60;;;16.90;82.70;;;;;;5029266;28;20029;-79
2021/08/29 08:46:33;;;;;;;3.10;1.50;;;16.90;82.70;;;;;;5029183;28;20017;-79
2021/08/29 08:49:02;;;;;;;3.50;1.70;;;17.00;82.70;;;;;;5030114;28;20040;-79
2021/08/29 08:51:30;;;;;;;3.95;1.60;;;17.00;82.60;;;;;;5032633;28;20482;-80
2021/08/29 08:54:00;;;;;;;2.67;1.70;;;17.00;82.70;;;;;;5036359;28;20168;-80
2021/08/29 08:56:26;;;;;;;3.65;1.63;;;17.00;82.90;;;;;;5037430;28;20472;-80
2021/08/29 08:58:59;;;;;;;2.42;1.48;;;17.00;82.90;;;;;;5035156;28;20064;-79
2021/08/29 09:01:25;;;;;;;6.55;4.30;;;17.00;83.10;;;;;;5031658;28;20048;-78
2021/08/29 09:03:50;;;;;;;6.28;2.95;;;17.00;83.10;;;;;;5034203;28;20709;-78
2021/08/29 09:06:18;;;;;;;10.23;5.38;;;17.10;83.10;;;;;;5029297;28;20071;-80
2021/08/29 09:08:43;;;;;;;8.52;4.35;;;17.10;83.20;;;;;;5031003;28;21513;-78
2021/08/29 09:11:09;;;;;;;4.70;2.25;;;17.00;83.30;;;;;;5033152;28;20057;-78
2021/08/29 09:13:47;;;;;;;6.53;2.30;;;17.00;83.30;;;;;;5029953;28;20021;-78
2021/08/29 09:16:19;;;;;;;4.32;1.80;;;17.10;83.40;;;;;;5018322;28;20034;-79
2021/08/29 09:18:52;;;;;;;5.28;1.92;;;17.00;83.40;;;;;;5023209;28;20457;-78
2021/08/29 09:21:19;;;;;;;;;;;17.10;83.50;;;;;;5029586;28;20025;-80
2021/08/29 09:23:44;;;;;;;5.50;2.00;;;17.10;83.40;;;;;;5029150;28;19917;-79
2021/08/29 09:26:10;;;;;;;23.08;10.27;;;17.00;83.60;;;;;;5029735;28;20392;-79
2021/08/29 09:28:38;;;;;;;12.32;5.40;;;17.10;83.70;;;;;;5028295;28;20700;-78
2021/08/29 09:31:03;;;;;;;7.93;3.70;;;17.00;83.70;;;;;;5028242;28;20117;-78
2021/08/29 09:33:32;;;;;;;6.00;2.50;;;17.00;83.70;;;;;;5028969;28;20164;-78
2021/08/29 09:35:58;;;;;;;7.13;2.17;;;17.00;83.90;;;;;;5030751;28;20381;-78
2021/08/29 09:38:24;;;;;;;5.45;2.05;;;17.00;84.00;;;;;;5027582;28;20018;-79
2021/08/29 09:40:50;;;;;;;5.63;2.15;;;17.00;84.20;;;;;;5029224;28;20037;-79
2021/08/29 09:43:15;;;;;;;5.63;2.50;;;17.00;84.30;;;;;;5019604;28;20037;-79
2021/08/29 09:45:43;;;;;;;7.30;2.90;;;17.00;84.30;;;;;;5030101;28;20021;-79
2021/08/29 09:48:12;;;;;;;4.93;2.10;;;17.00;84.40;;;;;;5030457;28;20022;-79
2021/08/29 09:50:40;;;;;;;4.97;1.73;;;17.10;84.40;;;;;;5030457;28;20029;-78
2021/08/29 09:53:12;;;;;;;5.80;1.90;;;17.10;84.50;;;;;;5029248;28;20017;-78
2021/08/29 09:55:41;;;;;;;3.17;1.83;;;17.10;84.50;;;;;;5028421;28;20037;-80
2021/08/29 09:58:19;;;;;;;2.95;1.58;;;17.20;84.50;;;;;;5028145;28;20029;-80
2021/08/29 10:01:08;;;;;;;2.65;1.23;;;17.20;84.50;;;;;;5027801;28;20052;-80
2021/08/29 10:03:35;;;;;;;3.50;1.10;;;17.20;84.60;;;;;;5029092;28;20060;-78
2021/08/29 10:06:25;;;;;;;3.10;1.30;;;17.20;84.60;;;;;;5021770;28;20045;-78
2021/08/29 10:08:55;;;;;;;4.32;2.17;;;17.20;84.70;;;;;;5030332;28;20029;-78
2021/08/29 10:11:22;;;;;;;3.35;1.50;;;17.20;84.70;;;;;;5033360;28;20029;-79
2021/08/29 10:13:49;;;;;;;3.25;1.35;;;17.20;84.70;;;;;;5033156;28;20030;-78
2021/08/29 10:16:17;;;;;;;2.20;1.40;;;17.20;84.90;;;;;;5031962;28;20040;-78
2021/08/29 10:18:46;;;;;;;4.00;1.50;;;17.20;84.90;;;;;;5033281;28;20033;-78
2021/08/29 10:21:14;;;;;;;2.65;1.30;;;17.20;85.00;;;;;;5033284;28;20034;-78
2021/08/29 10:23:48;;;;;;;4.20;1.40;;;17.20;84.90;;;;;;5036865;28;20045;-79
2021/08/29 10:26:16;;;;;;;1.75;1.00;;;17.20;85.00;;;;;;5034020;28;20022;-78
2021/08/29 10:28:47;;;;;;;4.95;2.33;;;17.20;85.00;;;;;;5041413;28;20033;-78
2021/08/29 10:31:17;;;;;;;84.65;76.93;;;17.30;85.00;;;;;;5044413;28;20024;-78
2021/08/29 10:33:48;;;;;;;5.65;4.60;;;17.30;85.00;;;;;;5037207;28;20495;-78
2021/08/29 10:36:19;;;;;;;3.47;2.13;;;17.30;84.90;;;;;;5045139;28;20676;-79
2021/08/29 10:38:47;;;;;;;3.08;1.40;;;17.40;84.90;;;;;;5035921;28;20038;-78
2021/08/29 10:41:16;;;;;;;3.22;1.48;;;17.40;84.90;;;;;;5041881;28;20067;-78
2021/08/29 10:43:43;;;;;;;1.85;1.02;;;17.40;85.00;;;;;;5024104;28;20034;-78
2021/08/29 10:46:10;;;;;;;2.70;1.73;;;17.40;85.00;;;;;;5040482;28;20104;-78
2021/08/29 10:48:47;;;;;;;2.70;1.58;;;17.40;85.10;;;;;;5045118;28;20021;-78
2021/08/29 10:51:15;;;;;;;3.72;1.52;;;17.40;85.10;;;;;;5075136;28;20503;-78
2021/08/29 10:53:48;;;;;;;3.65;1.20;;;17.40;85.40;;;;;;5040158;28;20041;-78
2021/08/29 10:56:16;;;;;;;2.22;1.25;;;17.30;85.40;;;;;;5031944;28;20112;-78
2021/08/29 10:58:46;;;;;;;3.20;1.25;;;17.30;85.60;;;;;;5037578;28;20029;-78
2021/08/29 11:01:38;;;;;;;1.80;1.10;;;17.30;85.80;;;;;;5036275;28;20025;-78
2021/08/29 11:04:19;;;;;;;2.88;1.20;;;17.30;85.80;;;;;;5036754;28;20103;-76
2021/08/29 11:06:46;;;;;;;1.45;0.85;;;17.40;85.90;;;;;;5034162;28;20029;-77
2021/08/29 11:09:37;;;;;;;1.10;1.00;;;17.40;85.70;;;;;;5043927;28;20091;-78
2021/08/29 11:12:15;;;;;;;1.92;0.80;;;17.40;85.80;;;;;;5028526;28;20036;-78
2021/08/29 11:14:44;;;;;;;3.10;1.00;;;17.40;85.80;;;;;;5034202;28;20032;-78
2021/08/29 11:17:17;;;;;;;1.83;0.90;;;17.40;85.80;;;;;;5033611;28;20075;-78
2021/08/29 11:19:44;;;;;;;1.30;0.95;;;17.40;85.90;;;;;;5032712;28;20060;-78
2021/08/29 11:22:12;;;;;;;1.67;1.10;;;17.40;85.90;;;;;;5032058;28;20033;-78
2021/08/29 11:24:56;;;;;;;0.93;0.68;;;17.40;86.00;;;;;;5034693;28;20029;-77
2021/08/29 11:27:37;;;;;;;2.03;0.93;;;17.40;86.30;;;;;;5031692;28;20045;-77
2021/08/29 11:30:21;;;;;;;1.15;0.82;;;17.40;86.30;;;;;;5034004;28;20022;-77
2021/08/29 11:32:53;;;;;;;1.80;1.10;;;17.40;86.30;;;;;;5034049;28;20112;-78
2021/08/29 11:35:27;;;;;;;1.50;1.00;;;17.40;86.60;;;;;;5030103;28;20514;-78
2021/08/29 11:38:08;;;;;;;0.93;0.80;;;17.40;86.80;;;;;;5033597;28;20035;-78
2021/08/29 11:41:16;;;;;;;1.02;0.70;;;17.40;86.80;;;;;;5030622;28;20025;-78
2021/08/29 11:43:46;;;;;;;0.85;0.65;;;17.50;86.90;;;;;;5013581;28;20504;-79
2021/08/29 11:46:18;;;;;;;1.05;0.70;;;17.50;86.50;;;;;;5027608;28;20053;-79
2021/08/29 11:48:57;;;;;;;0.70;0.70;;;17.50;86.40;;;;;;5030633;28;20030;-79
2021/08/29 11:51:26;;;;;;;1.10;0.70;;;17.60;86.40;;;;;;5031524;28;20037;-78
2021/08/29 11:53:52;;;;;;;1.90;0.90;;;17.60;86.20;;;;;;5034930;28;20029;-77
2021/08/29 11:56:18;;;;;;;1.20;0.80;;;17.80;86.10;;;;;;5031603;28;20026;-77
2021/08/29 11:58:45;;;;;;;1.73;1.10;;;17.80;86.00;;;;;;5032334;28;20038;-77
2021/08/29 12:01:11;;;;;;;2.53;1.83;;;17.80;85.80;;;;;;5031565;28;20022;-78
2021/08/29 12:03:38;;;;;;;1.27;1.10;;;17.90;85.80;;;;;;5032702;28;20040;-77
2021/08/29 12:06:07;;;;;;;1.02;0.90;;;17.90;85.70;;;;;;5031492;28;20036;-78
2021/08/29 12:08:55;;;;;;;1.65;1.30;;;17.90;85.70;;;;;;5029632;28;20033;-77
2021/08/29 12:11:22;;;;;;;2.40;1.20;;;17.90;85.70;;;;;;5024689;28;20047;-79
2021/08/29 12:13:48;;;;;;;2.78;1.35;;;17.90;85.50;;;;;;5029294;28;20079;-79
2021/08/29 12:16:14;;;;;;;4.18;2.20;;;17.90;85.60;;;;;;5027347;28;20017;-78
2021/08/29 12:18:40;;;;;;;3.35;1.80;;;17.90;85.70;;;;;;5026377;28;20470;-77
2021/08/29 12:21:09;;;;;;;3.67;1.67;;;17.90;85.80;;;;;;5032287;28;20030;-77
2021/08/29 12:23:37;;;;;;;5.68;2.95;;;18.00;85.80;;;;;;5032411;28;20042;-78
2021/08/29 12:26:08;;;;;;;4.03;2.30;;;18.00;85.60;;;;;;5036901;28;20456;-77
2021/08/29 12:28:35;;;;;;;3.77;2.47;;;18.10;85.50;;;;;;5028936;28;20030;-79
2021/08/29 12:31:02;;;;;;;3.17;2.10;;;18.20;85.30;;;;;;5025001;28;20041;-79
2021/08/29 12:33:28;;;;;;;5.13;2.40;;;18.30;85.20;;;;;;5026550;28;20051;-77
2021/08/29 12:35:55;;;;;;;3.10;1.80;;;18.30;85.10;;;;;;5025669;28;20029;-78
2021/08/29 12:38:22;;;;;;;4.35;2.60;;;18.30;85.10;;;;;;5025838;28;20025;-78
2021/08/29 12:40:49;;;;;;;3.75;2.40;;;18.30;85.10;;;;;;5054460;28;20396;-79
2021/08/29 12:43:15;;;;;;;4.90;2.38;;;18.40;85.10;;;;;;5025837;28;20028;-79
2021/08/29 12:45:40;;;;;;;4.10;2.00;;;18.40;85.00;;;;;;5027648;28;20045;-81
2021/08/29 12:48:07;;;;;;;3.55;1.70;;;18.40;84.90;;;;;;5028967;28;20029;-81